createdAt,value
2018-06-03T00:00:05.471Z,26.5
2018-06-03T00:02:05.198Z,26.5
2018-06-03T00:04:04.904Z,26.5
2018-06-03T00:06:04.777Z,26.5
2018-06-03T00:08:07.991Z,26.5
2018-06-03T00:10:04.931Z,26.5
2018-06-03T00:12:05.232Z,26.5
2018-06-03T00:14:04.955Z,26.5
2018-06-03T00:16:04.599Z,26.5
2018-06-03T00:18:05.651Z,26.5
2018-06-03T00:20:05.769Z,26.5
2018-06-03T00:22:05.596Z,26.5
2018-06-03T00:24:05.279Z,26.5
2018-06-03T00:26:05.519Z,26.5
2018-06-03T00:28:05.291Z,26.5
2018-06-03T00:30:08.251Z,26.5
2018-06-03T00:32:04.977Z,26.5
2018-06-03T00:34:04.733Z,26.5
2018-06-03T00:36:10.537Z,26.5
2018-06-03T00:38:07.773Z,26.5
2018-06-03T00:40:05.457Z,26.5
2018-06-03T00:42:05.170Z,26.5
2018-06-03T00:44:04.882Z,26.5
2018-06-03T00:46:05.084Z,26.5
2018-06-03T00:48:07.297Z,26.5
2018-06-03T00:50:05.125Z,26.4
2018-06-03T00:52:04.788Z,26.5
2018-06-03T00:54:05.473Z,26.5
2018-06-03T00:56:05.130Z,26.5
2018-06-03T00:58:04.830Z,26.4
2018-06-03T01:00:05.034Z,26.5
2018-06-03T01:02:05.272Z,26.5
2018-06-03T01:04:05.630Z,26.5
2018-06-03T01:06:07.863Z,26.5
2018-06-03T01:08:08.197Z,26.5
2018-06-03T01:10:07.472Z,26.4
2018-06-03T01:12:05.129Z,26.5
2018-06-03T01:14:07.438Z,26.5
2018-06-03T01:16:05.164Z,26.4
2018-06-03T01:18:05.098Z,26.4
2018-06-03T01:20:04.802Z,26.5
2018-06-03T01:22:04.693Z,26.4
2018-06-03T01:24:10.550Z,26.4
2018-06-03T01:26:05.316Z,26.4
2018-06-03T01:28:05.055Z,26.5
2018-06-03T01:30:04.754Z,26.5
2018-06-03T01:32:07.556Z,26.5
2018-06-03T01:34:12.841Z,26.4
2018-06-03T01:36:07.720Z,26.4
2018-06-03T01:38:05.403Z,26.4
2018-06-03T01:40:07.700Z,26.4
2018-06-03T01:42:05.372Z,26.4
2018-06-03T01:44:05.073Z,26.4
2018-06-03T01:46:05.237Z,26.4
2018-06-03T01:48:04.922Z,26.4
2018-06-03T01:50:05.234Z,26.4
2018-06-03T01:52:05.471Z,26.4
2018-06-03T01:54:05.141Z,26.4
2018-06-03T01:56:04.926Z,26.4
2018-06-03T01:58:08.152Z,26.4
2018-06-03T02:00:05.001Z,26.4
2018-06-03T02:02:04.689Z,26.4
2018-06-03T02:04:04.951Z,26.4
2018-06-03T02:06:04.740Z,26.4
2018-06-03T02:08:05.450Z,26.4
2018-06-03T02:10:05.217Z,26.4
2018-06-03T02:12:04.969Z,26.4
2018-06-03T02:14:04.903Z,26.4
2018-06-03T02:16:05.571Z,26.4
2018-06-03T02:18:05.445Z,26.3
2018-06-03T02:20:10.199Z,26.3
2018-06-03T02:22:04.883Z,26.3
2018-06-03T02:24:05.589Z,26.3
2018-06-03T02:26:07.893Z,26.4
2018-06-03T02:28:05.577Z,26.3
2018-06-03T02:30:07.807Z,26.4
2018-06-03T02:32:05.021Z,26.3
2018-06-03T02:34:04.746Z,26.4
2018-06-03T02:36:05.443Z,26.3
2018-06-03T02:38:05.167Z,26.3
2018-06-03T02:40:04.838Z,26.3
2018-06-03T02:42:10.111Z,26.3
2018-06-03T02:44:07.346Z,26.4
2018-06-03T02:46:05.006Z,26.3
2018-06-03T02:48:20.381Z,26.3
2018-06-03T02:50:07.615Z,26.3
2018-06-03T02:52:05.361Z,26.3
2018-06-03T02:54:05.086Z,26.4
2018-06-03T02:56:09.908Z,26.3
2018-06-03T02:58:13.296Z,26.4
2018-06-03T03:00:04.966Z,26.3
2018-06-03T03:02:04.744Z,26.3
2018-06-03T03:04:05.540Z,26.3
2018-06-03T03:06:05.251Z,26.3
2018-06-03T03:08:05.247Z,26.3
2018-06-03T03:10:10.157Z,26.3
2018-06-03T03:12:15.002Z,26.3
2018-06-03T03:14:04.789Z,26.3
2018-06-03T03:16:05.489Z,26.3
2018-06-03T03:18:07.928Z,26.3
2018-06-03T03:20:05.878Z,26.3
2018-06-03T03:22:05.540Z,26.3
2018-06-03T03:24:10.297Z,26.3
2018-06-03T03:26:05.016Z,26.3
2018-06-03T03:28:04.731Z,26.3
2018-06-03T03:30:04.924Z,26.3
2018-06-03T03:32:05.569Z,26.3
2018-06-03T03:34:05.247Z,26.3
2018-06-03T03:36:04.886Z,26.3
2018-06-03T03:38:05.672Z,26.3
2018-06-03T03:40:05.366Z,26.3
2018-06-03T03:42:05.067Z,26.3
2018-06-03T03:44:07.300Z,26.3
2018-06-03T03:46:04.997Z,26.3
2018-06-03T03:48:04.726Z,26.3
2018-06-03T03:50:05.458Z,26.3
2018-06-03T03:52:05.199Z,26.3
2018-06-03T03:54:05.460Z,26.2
2018-06-03T03:56:07.701Z,26.3
2018-06-03T03:58:10.042Z,26.3
2018-06-03T04:00:09.845Z,26.3
2018-06-03T04:02:05.550Z,26.3
2018-06-03T04:04:12.818Z,26.3
2018-06-03T04:06:05.492Z,26.3
2018-06-03T04:08:04.689Z,26.3
2018-06-03T04:10:05.364Z,26.3
2018-06-03T04:12:05.359Z,26.3
2018-06-03T04:14:07.960Z,26.3
2018-06-03T04:16:04.618Z,26.3
2018-06-03T04:18:05.623Z,26.3
2018-06-03T04:20:05.331Z,26.3
2018-06-03T04:22:04.984Z,26.3
2018-06-03T04:24:12.740Z,26.3
2018-06-03T04:26:07.508Z,26.3
2018-06-03T04:28:07.738Z,26.3
2018-06-03T04:30:08.550Z,26.3
2018-06-03T04:32:10.596Z,26.3
2018-06-03T04:34:05.282Z,26.3
2018-06-03T04:36:12.510Z,26.4
2018-06-03T04:38:05.210Z,26.3
2018-06-03T04:40:09.926Z,26.4
2018-06-03T04:42:05.174Z,26.4
2018-06-03T04:44:05.071Z,26.4
2018-06-03T04:46:07.250Z,26.4
2018-06-03T04:48:05.267Z,26.4
2018-06-03T04:50:04.922Z,26.5
2018-06-03T04:52:05.568Z,26.5
2018-06-03T04:54:05.241Z,26.5
2018-06-03T04:56:07.503Z,26.5
2018-06-03T04:58:05.151Z,26.5
2018-06-03T05:00:05.034Z,26.6
2018-06-03T05:02:05.000Z,26.5
2018-06-03T05:04:12.273Z,26.6
2018-06-03T05:06:06.531Z,26.6
2018-06-03T05:08:10.286Z,26.6
2018-06-03T05:10:04.956Z,26.6
2018-06-03T05:12:04.646Z,26.6
2018-06-03T05:14:05.595Z,26.7
2018-06-03T05:16:07.891Z,26.7
2018-06-03T05:18:04.777Z,26.7
2018-06-03T05:20:05.495Z,26.7
2018-06-03T05:22:10.233Z,26.7
2018-06-03T05:24:05.463Z,26.7
2018-06-03T05:26:05.195Z,26.8
2018-06-03T05:28:07.380Z,26.8
2018-06-03T05:30:07.587Z,26.8
2018-06-03T05:32:05.488Z,26.8
2018-06-03T05:34:05.131Z,26.8
2018-06-03T05:36:05.376Z,26.8
2018-06-03T05:38:05.573Z,26.8
2018-06-03T05:40:09.857Z,26.8
2018-06-03T05:42:05.096Z,26.8
2018-06-03T05:44:04.902Z,26.8
2018-06-03T05:46:05.591Z,26.8
2018-06-03T05:48:04.882Z,26.8
2018-06-03T05:50:05.357Z,26.8
2018-06-03T05:52:05.061Z,26.9
2018-06-03T05:54:10.338Z,26.9
2018-06-03T05:56:10.140Z,26.9
2018-06-03T05:58:04.820Z,26.9
2018-06-03T06:00:10.592Z,26.8
2018-06-03T06:02:07.839Z,26.9
2018-06-03T06:04:05.634Z,26.9
2018-06-03T06:06:05.309Z,26.9
2018-06-03T06:08:07.831Z,26.9
2018-06-03T06:10:05.503Z,26.8
2018-06-03T06:12:05.213Z,26.8
2018-06-03T06:14:04.878Z,26.8
2018-06-03T06:16:05.571Z,26.8
2018-06-03T06:18:05.492Z,26.9
2018-06-03T06:20:05.244Z,26.9
2018-06-03T06:22:08.110Z,26.9
2018-06-03T06:24:04.813Z,26.9
2018-06-03T06:26:05.475Z,26.9
2018-06-03T06:28:07.705Z,26.9
2018-06-03T06:30:05.343Z,26.9
2018-06-03T06:32:05.284Z,27
2018-06-03T06:34:04.967Z,27
2018-06-03T06:36:04.667Z,27
2018-06-03T06:38:05.405Z,27
2018-06-03T06:40:09.741Z,27
2018-06-03T06:42:07.974Z,27
2018-06-03T06:44:04.684Z,27
2018-06-03T06:46:05.388Z,27
2018-06-03T06:48:05.143Z,27.1
2018-06-03T06:50:05.398Z,27.1
2018-06-03T06:52:05.411Z,27.2
2018-06-03T06:54:05.085Z,27.2
2018-06-03T06:56:04.740Z,27.1
2018-06-03T06:58:05.476Z,27.1
2018-06-03T07:00:05.326Z,27.1
2018-06-03T07:02:05.261Z,27.2
2018-06-03T07:04:04.948Z,27.2
2018-06-03T07:06:04.591Z,27.2
2018-06-03T07:08:07.812Z,27.2
2018-06-03T07:10:04.679Z,27.2
2018-06-03T07:12:05.379Z,27.3
2018-06-03T07:14:05.042Z,27.3
2018-06-03T07:16:04.729Z,27.4
2018-06-03T07:18:04.754Z,27.4
2018-06-03T07:20:05.506Z,27.3
2018-06-03T07:22:05.275Z,27.4
2018-06-03T07:24:07.488Z,27.4
2018-06-03T07:26:05.357Z,27.4
2018-06-03T07:28:05.061Z,27.4
2018-06-03T07:30:07.306Z,27.5
2018-06-03T07:32:05.546Z,27.4
2018-06-03T07:34:05.598Z,27.5
2018-06-03T07:36:05.431Z,27.4
2018-06-03T07:38:05.151Z,27.5
2018-06-03T07:40:07.399Z,27.5
2018-06-03T07:42:05.203Z,27.5
2018-06-03T07:44:05.132Z,27.5
2018-06-03T07:46:07.391Z,27.5
2018-06-03T07:48:07.661Z,27.5
2018-06-03T07:50:05.309Z,27.5
2018-06-03T07:52:05.095Z,27.5
2018-06-03T07:54:04.787Z,27.5
2018-06-03T07:56:05.596Z,27.5
2018-06-03T07:58:07.815Z,27.5
2018-06-03T08:00:05.487Z,27.5
2018-06-03T08:02:07.732Z,27.6
2018-06-03T08:04:05.410Z,27.6
2018-06-03T08:06:12.684Z,27.6
2018-06-03T08:08:10.493Z,27.7
2018-06-03T08:10:05.179Z,27.7
2018-06-03T08:12:07.457Z,27.8
2018-06-03T08:14:05.224Z,27.8
2018-06-03T08:16:15.000Z,27.7
2018-06-03T08:18:09.982Z,27.7
2018-06-03T08:20:04.752Z,27.7
2018-06-03T08:22:10.041Z,27.7
2018-06-03T08:24:04.746Z,27.7
2018-06-03T08:26:05.457Z,27.8
2018-06-03T08:28:05.187Z,27.8
2018-06-03T08:30:05.382Z,27.7
2018-06-03T08:32:05.077Z,27.7
2018-06-03T08:34:04.821Z,27.6
2018-06-03T08:36:05.500Z,27.6
2018-06-03T08:38:04.693Z,27.6
2018-06-03T08:40:05.655Z,27.5
2018-06-03T08:42:07.862Z,27.5
2018-06-03T08:44:05.539Z,27.5
2018-06-03T08:46:05.313Z,27.5
2018-06-03T08:48:07.579Z,27.5
2018-06-03T08:50:07.813Z,27.5
2018-06-03T08:52:05.578Z,27.5
2018-06-03T08:54:05.343Z,27.5
2018-06-03T08:56:05.151Z,27.5
2018-06-03T08:58:04.849Z,27.5
2018-06-03T09:00:05.620Z,27.4
2018-06-03T09:02:04.832Z,27.5
2018-06-03T09:04:08.052Z,27.5
2018-06-03T09:06:04.822Z,27.4
2018-06-03T09:08:10.581Z,27.4
2018-06-03T09:10:05.304Z,27.4
2018-06-03T09:12:04.964Z,27.4
2018-06-03T09:14:15.290Z,27.4
2018-06-03T09:16:05.033Z,27.4
2018-06-03T09:18:07.416Z,27.5
2018-06-03T09:20:10.295Z,27.5
2018-06-03T09:22:05.002Z,27.5
2018-06-03T09:24:04.663Z,27.5
2018-06-03T09:26:05.600Z,27.5
2018-06-03T09:28:07.911Z,27.5
2018-06-03T09:30:06.597Z,27.5
2018-06-03T09:32:05.622Z,27.5
2018-06-03T09:34:05.617Z,27.5
2018-06-03T09:36:05.343Z,27.6
2018-06-03T09:38:05.076Z,27.6
2018-06-03T09:40:07.293Z,27.6
2018-06-03T09:42:05.522Z,27.6
2018-06-03T09:44:05.468Z,27.6
2018-06-03T09:46:07.244Z,27.6
2018-06-03T09:48:05.397Z,27.6
2018-06-03T09:50:07.768Z,27.6
2018-06-03T09:52:05.572Z,27.6
2018-06-03T09:54:05.255Z,27.6
2018-06-03T09:56:08.237Z,27.6
2018-06-03T09:58:04.944Z,27.6
2018-06-03T10:00:04.679Z,27.6
2018-06-03T10:02:05.583Z,27.5
2018-06-03T10:04:07.830Z,27.5
2018-06-03T10:06:05.104Z,27.5
2018-06-03T10:08:05.021Z,27.5
2018-06-03T10:10:07.260Z,27.5
2018-06-03T10:12:05.009Z,27.5
2018-06-03T10:14:04.717Z,27.4
2018-06-03T10:16:05.429Z,27.4
2018-06-03T10:18:05.019Z,27.4
2018-06-03T10:20:07.278Z,27.4
2018-06-03T10:22:05.161Z,27.4
2018-06-03T10:24:04.851Z,27.4
2018-06-03T10:26:05.558Z,27.4
2018-06-03T10:28:04.688Z,27.5
2018-06-03T10:30:07.930Z,27.5
2018-06-03T10:32:04.782Z,27.4
2018-06-03T10:34:05.551Z,27.4
2018-06-03T10:36:04.766Z,27.4
2018-06-03T10:38:10.570Z,27.4
2018-06-03T10:40:05.424Z,27.4
2018-06-03T10:42:05.124Z,27.4
2018-06-03T10:44:07.972Z,27.4
2018-06-03T10:46:04.614Z,27.4
2018-06-03T10:48:05.266Z,27.4
2018-06-03T10:50:07.506Z,27.4
2018-06-03T10:52:05.248Z,27.4
2018-06-03T10:54:10.004Z,27.4
2018-06-03T10:56:04.772Z,27.4
2018-06-03T10:58:05.053Z,27.4
2018-06-03T11:00:04.789Z,27.3
2018-06-03T11:02:07.811Z,27.4
2018-06-03T11:04:05.912Z,27.4
2018-06-03T11:06:04.894Z,27.3
2018-06-03T11:08:04.644Z,27.3
2018-06-03T11:10:04.932Z,27.3
2018-06-03T11:12:04.634Z,27.4
2018-06-03T11:14:07.413Z,27.3
2018-06-03T11:16:10.247Z,27.3
2018-06-03T11:18:05.207Z,27.3
2018-06-03T11:20:04.964Z,27.3
2018-06-03T11:22:07.163Z,27.3
2018-06-03T11:24:04.866Z,27.3
2018-06-03T11:26:08.166Z,27.3
2018-06-03T11:28:07.437Z,27.3
2018-06-03T11:30:05.153Z,27.3
2018-06-03T11:32:04.849Z,27.3
2018-06-03T11:34:05.570Z,27.3
2018-06-03T11:36:10.366Z,27.2
2018-06-03T11:38:10.147Z,27.2
2018-06-03T11:40:07.358Z,27.3
2018-06-03T11:42:07.603Z,27.2
2018-06-03T11:44:07.885Z,27.2
2018-06-03T11:46:05.568Z,27.3
2018-06-03T11:48:07.765Z,27.2
2018-06-03T11:50:05.469Z,27.2
2018-06-03T11:52:10.227Z,27.2
2018-06-03T11:54:09.981Z,27.2
2018-06-03T11:56:04.663Z,27.2
2018-06-03T11:58:10.406Z,27.2
2018-06-03T12:00:09.792Z,27.2
2018-06-03T12:02:05.495Z,27.2
2018-06-03T12:04:12.292Z,27.2
2018-06-03T12:06:05.037Z,27.2
2018-06-03T12:08:04.910Z,27.2
2018-06-03T12:10:09.738Z,27.2
2018-06-03T12:12:10.515Z,27.2
2018-06-03T12:14:05.488Z,27.2
2018-06-03T12:16:09.863Z,27.2
2018-06-03T12:18:04.729Z,27.2
2018-06-03T12:20:07.960Z,27.2
2018-06-03T12:22:07.245Z,27.2
2018-06-03T12:24:04.958Z,27.2
2018-06-03T12:26:04.704Z,27.2
2018-06-03T12:28:05.493Z,27.2
2018-06-03T12:30:05.220Z,27.2
2018-06-03T12:32:07.428Z,27.2
2018-06-03T12:34:04.665Z,27.2
2018-06-03T12:36:07.900Z,27.2
2018-06-03T12:38:05.645Z,27.2
2018-06-03T12:40:05.414Z,27.2
2018-06-03T12:42:05.520Z,27.2
2018-06-03T12:44:05.236Z,27.3
2018-06-03T12:46:12.523Z,27.2
2018-06-03T12:48:05.179Z,27.2
2018-06-03T12:50:04.990Z,27.2
2018-06-03T12:52:04.692Z,27.2
2018-06-03T12:54:05.417Z,27.3
2018-06-03T12:56:05.347Z,27.2
2018-06-03T12:58:05.524Z,27.2
2018-06-03T13:00:05.288Z,27.2
2018-06-03T13:02:05.026Z,27.2
2018-06-03T13:04:04.815Z,27.2
2018-06-03T13:06:05.517Z,27.2
2018-06-03T13:08:07.766Z,27.2
2018-06-03T13:10:05.458Z,27.2
2018-06-03T13:12:05.346Z,27.2
2018-06-03T13:14:05.103Z,27.2
2018-06-03T13:16:05.325Z,27.2
2018-06-03T13:18:05.208Z,27.2
2018-06-03T13:20:05.094Z,27.2
2018-06-03T13:22:04.857Z,27.2
2018-06-03T13:24:05.558Z,27.2
2018-06-03T13:26:05.285Z,27.2
2018-06-03T13:28:05.280Z,27.2
2018-06-03T13:30:05.473Z,27.2
2018-06-03T13:32:05.179Z,27.2
2018-06-03T13:34:10.099Z,27.3
2018-06-03T13:36:04.780Z,27.3
2018-06-03T13:38:05.509Z,27.3
2018-06-03T13:40:05.243Z,27.3
2018-06-03T13:42:04.961Z,27.3
2018-06-03T13:44:04.946Z,27.3
2018-06-03T13:46:04.628Z,27.4
2018-06-03T13:48:07.843Z,27.3
2018-06-03T13:50:05.558Z,27.3
2018-06-03T13:52:07.743Z,27.3
2018-06-03T13:54:07.957Z,27.3
2018-06-03T13:56:04.669Z,27.3
2018-06-03T13:58:12.989Z,27.3
2018-06-03T14:00:04.725Z,27.3
2018-06-03T14:02:05.424Z,27.3
2018-06-03T14:04:05.227Z,27.3
2018-06-03T14:06:04.940Z,27.4
2018-06-03T14:08:10.230Z,27.4
2018-06-03T14:10:05.144Z,27.4
2018-06-03T14:12:07.401Z,27.4
2018-06-03T14:14:05.131Z,27.4
2018-06-03T14:16:04.853Z,27.4
2018-06-03T14:18:09.804Z,27.4
2018-06-03T14:20:08.054Z,27.4
2018-06-03T14:22:04.730Z,27.4
2018-06-03T14:24:05.446Z,27.4
2018-06-03T14:26:05.098Z,27.4
2018-06-03T14:28:07.332Z,27.4
2018-06-03T14:30:05.046Z,27.4
2018-06-03T14:32:08.104Z,27.5
2018-06-03T14:34:04.799Z,27.5
2018-06-03T14:36:05.481Z,27.4
2018-06-03T14:38:05.008Z,27.5
2018-06-03T14:40:07.742Z,27.5
2018-06-03T14:42:07.941Z,27.5
2018-06-03T14:44:04.676Z,27.5
2018-06-03T14:46:04.925Z,27.5
2018-06-03T14:48:08.255Z,27.5
2018-06-03T14:50:05.262Z,27.5
2018-06-03T14:52:04.932Z,27.5
2018-06-03T14:54:05.194Z,27.5
2018-06-03T14:56:04.886Z,27.5
2018-06-03T14:58:07.610Z,27.5
2018-06-03T15:00:05.223Z,27.5
2018-06-03T15:02:04.963Z,27.5
2018-06-03T15:04:10.216Z,27.5
2018-06-03T15:06:05.480Z,27.6
2018-06-03T15:08:08.052Z,27.5
2018-06-03T15:10:04.867Z,27.5
2018-06-03T15:12:07.162Z,27.6
2018-06-03T15:14:09.953Z,27.5
2018-06-03T15:16:05.217Z,27.5
2018-06-03T15:18:05.109Z,27.5
2018-06-03T15:20:05.097Z,27.6
2018-06-03T15:22:07.388Z,27.6
2018-06-03T15:24:05.176Z,27.6
2018-06-03T15:26:07.364Z,27.6
2018-06-03T15:28:05.142Z,27.6
2018-06-03T15:30:07.354Z,27.6
2018-06-03T15:32:05.081Z,27.6
2018-06-03T15:34:05.355Z,27.6
2018-06-03T15:36:05.101Z,27.7
2018-06-03T15:38:07.383Z,27.6
2018-06-03T15:40:05.064Z,27.6
2018-06-03T15:42:04.855Z,27.6
2018-06-03T15:44:10.898Z,27.6
2018-06-03T15:46:05.098Z,27.7
2018-06-03T15:48:05.337Z,27.6
2018-06-03T15:50:05.073Z,27.6
2018-06-03T15:52:12.448Z,27.7
2018-06-03T15:54:07.761Z,27.7
2018-06-03T15:56:05.441Z,27.7
2018-06-03T15:58:04.641Z,27.7
2018-06-03T16:00:05.361Z,27.7
2018-06-03T16:02:04.883Z,27.7
2018-06-03T16:04:05.589Z,27.7
2018-06-03T16:06:04.811Z,27.7
2018-06-03T16:08:10.552Z,27.7
2018-06-03T16:10:05.237Z,27.7
2018-06-03T16:12:04.917Z,27.7
2018-06-03T16:14:05.618Z,27.7
2018-06-03T16:16:05.370Z,27.7
2018-06-03T16:18:07.840Z,27.7
2018-06-03T16:20:05.530Z,27.7
2018-06-03T16:22:04.745Z,27.7
2018-06-03T16:24:07.925Z,27.7
2018-06-03T16:26:05.690Z,27.7
2018-06-03T16:28:05.551Z,27.7
2018-06-03T16:30:07.945Z,27.8
2018-06-03T16:32:04.661Z,27.7
2018-06-03T16:34:05.330Z,27.8
2018-06-03T16:36:07.518Z,27.8
2018-06-03T16:38:05.428Z,27.8
2018-06-03T16:40:05.087Z,27.8
2018-06-03T16:42:05.329Z,27.8
2018-06-03T16:44:07.552Z,27.8
2018-06-03T16:46:05.264Z,27.8
2018-06-03T16:48:04.738Z,27.8
2018-06-03T16:50:05.496Z,27.8
2018-06-03T16:52:05.252Z,27.8
2018-06-03T16:54:05.509Z,27.8
2018-06-03T16:56:05.262Z,27.8
2018-06-03T16:58:07.666Z,27.8
2018-06-03T17:00:05.312Z,27.8
2018-06-03T17:02:05.605Z,27.8
2018-06-03T17:04:04.869Z,27.8
2018-06-03T17:06:08.139Z,27.8
2018-06-03T17:08:04.887Z,27.8
2018-06-03T17:10:05.139Z,27.8
2018-06-03T17:12:05.095Z,27.8
2018-06-03T17:14:05.068Z,27.8
2018-06-03T17:16:05.008Z,27.8
2018-06-03T17:18:05.370Z,27.8
2018-06-03T17:20:05.066Z,27.8
2018-06-03T17:22:04.802Z,27.8
2018-06-03T17:24:05.486Z,27.8
2018-06-03T17:26:07.756Z,27.8
2018-06-03T17:28:05.451Z,27.9
2018-06-03T17:30:12.881Z,27.8
2018-06-03T17:32:08.136Z,27.8
2018-06-03T17:34:04.926Z,27.8
2018-06-03T17:36:08.144Z,27.8
2018-06-03T17:38:04.818Z,27.8
2018-06-03T17:40:05.056Z,27.8
2018-06-03T17:42:07.240Z,27.8
2018-06-03T17:44:04.954Z,27.8
2018-06-03T17:46:04.673Z,27.8
2018-06-03T17:48:10.420Z,27.8
2018-06-03T17:50:07.166Z,27.8
2018-06-03T17:52:04.884Z,27.8
2018-06-03T17:54:05.553Z,27.8
2018-06-03T17:56:05.443Z,27.8
2018-06-03T17:58:07.933Z,27.8
2018-06-03T18:00:05.181Z,27.8
2018-06-03T18:02:07.988Z,27.8
2018-06-03T18:04:07.195Z,27.8
2018-06-03T18:06:04.959Z,27.8
2018-06-03T18:08:07.228Z,27.8
2018-06-03T18:10:04.944Z,27.8
2018-06-03T18:12:07.256Z,27.8
2018-06-03T18:14:05.428Z,27.8
2018-06-03T18:16:05.060Z,27.8
2018-06-03T18:18:05.092Z,27.8
2018-06-03T18:20:05.064Z,27.8
2018-06-03T18:22:04.858Z,27.8
2018-06-03T18:24:05.658Z,27.8
2018-06-03T18:26:05.629Z,27.8
2018-06-03T18:28:05.343Z,27.8
2018-06-03T18:30:05.011Z,27.8
2018-06-03T18:32:07.301Z,27.8
2018-06-03T18:34:08.056Z,27.8
2018-06-03T18:36:05.005Z,27.8
2018-06-03T18:38:04.702Z,27.8
2018-06-03T18:40:05.361Z,27.8
2018-06-03T18:42:05.031Z,27.7
2018-06-03T18:44:06.334Z,27.8
2018-06-03T18:46:07.589Z,27.8
2018-06-03T18:48:05.294Z,27.7
2018-06-03T18:50:07.642Z,27.8
2018-06-03T18:52:05.390Z,27.7
2018-06-03T18:54:05.279Z,27.8
2018-06-03T18:56:05.239Z,27.8
2018-06-03T18:58:05.528Z,27.8
2018-06-03T19:00:05.212Z,27.8
2018-06-03T19:02:04.951Z,27.8
2018-06-03T19:04:04.677Z,27.8
2018-06-03T19:06:04.967Z,27.8
2018-06-03T19:08:09.869Z,27.8
2018-06-03T19:10:07.816Z,27.8
2018-06-03T19:12:08.052Z,27.8
2018-06-03T19:14:04.820Z,27.8
2018-06-03T19:16:08.051Z,27.8
2018-06-03T19:18:04.934Z,27.8
2018-06-03T19:20:09.653Z,27.8
2018-06-03T19:22:07.855Z,27.8
2018-06-03T19:24:05.570Z,27.7
2018-06-03T19:26:05.468Z,27.8
2018-06-03T19:28:05.203Z,27.8
2018-06-03T19:30:05.412Z,27.8
2018-06-03T19:32:05.432Z,27.7
2018-06-03T19:34:05.344Z,27.8
2018-06-03T19:36:05.116Z,27.7
2018-06-03T19:38:04.844Z,27.8
2018-06-03T19:40:05.762Z,27.7
2018-06-03T19:42:05.648Z,27.7
2018-06-03T19:44:05.388Z,27.7
2018-06-03T19:46:05.029Z,27.7
2018-06-03T19:48:04.902Z,27.7
2018-06-03T19:50:04.830Z,27.7
2018-06-03T19:52:15.609Z,27.7
2018-06-03T19:54:08.063Z,27.7
2018-06-03T19:56:05.391Z,27.7
2018-06-03T19:58:09.702Z,27.7
2018-06-03T20:00:05.438Z,27.7
2018-06-03T20:02:05.101Z,27.7
2018-06-03T20:04:07.331Z,27.7
2018-06-03T20:06:07.640Z,27.7
2018-06-03T20:08:08.160Z,27.7
2018-06-03T20:10:05.366Z,27.7
2018-06-03T20:12:07.851Z,27.6
2018-06-03T20:14:05.634Z,27.7
2018-06-03T20:16:04.890Z,27.6
2018-06-03T20:18:05.244Z,27.6
2018-06-03T20:20:05.005Z,27.6
2018-06-03T20:22:04.995Z,27.6
2018-06-03T20:24:07.273Z,27.6
2018-06-03T20:26:12.516Z,27.6
2018-06-03T20:28:05.205Z,27.6
2018-06-03T20:30:09.945Z,27.5
2018-06-03T20:32:04.695Z,27.6
2018-06-03T20:34:05.381Z,27.6
2018-06-03T20:36:05.059Z,27.6
2018-06-03T20:38:05.009Z,27.6
2018-06-03T20:40:05.264Z,27.6
2018-06-03T20:42:04.675Z,27.6
2018-06-03T20:44:05.413Z,27.5
2018-06-03T20:46:05.116Z,27.6
2018-06-03T20:48:05.067Z,27.5
2018-06-03T20:50:04.812Z,27.5
2018-06-03T20:52:07.531Z,27.5
2018-06-03T20:54:05.223Z,27.5
2018-06-03T20:56:04.900Z,27.5
2018-06-03T20:58:04.843Z,27.5
2018-06-03T21:00:05.540Z,27.5
2018-06-03T21:02:05.502Z,27.5
2018-06-03T21:04:04.642Z,27.5
2018-06-03T21:06:06.349Z,27.5
2018-06-03T21:08:17.888Z,27.5
2018-06-03T21:10:05.607Z,27.4
2018-06-03T21:12:05.339Z,27.4
2018-06-03T21:14:07.613Z,27.4
2018-06-03T21:16:05.275Z,27.4
2018-06-03T21:18:10.286Z,27.4
2018-06-03T21:20:05.075Z,27.4
2018-06-03T21:22:04.790Z,27.4
2018-06-03T21:24:05.509Z,27.4
2018-06-03T21:26:05.191Z,27.3
2018-06-03T21:28:07.426Z,27.3
2018-06-03T21:30:07.757Z,27.3
2018-06-03T21:32:04.647Z,27.3
2018-06-03T21:34:10.410Z,27.3
2018-06-03T21:36:07.597Z,27.3
2018-06-03T21:38:05.309Z,27.2
2018-06-03T21:40:05.092Z,27.3
2018-06-03T21:42:04.823Z,27.2
2018-06-03T21:44:04.791Z,27.2
2018-06-03T21:46:05.523Z,27.2
2018-06-03T21:48:04.726Z,27.2
2018-06-03T21:50:05.419Z,27.2
2018-06-03T21:52:05.085Z,27.2
2018-06-03T21:54:04.902Z,27.2
2018-06-03T21:56:05.653Z,27.2
2018-06-03T21:58:04.915Z,27.2
2018-06-03T22:00:08.126Z,27.2
2018-06-03T22:02:04.790Z,27.2
2018-06-03T22:04:05.436Z,27.1
2018-06-03T22:06:05.184Z,27.1
2018-06-03T22:08:04.941Z,27.1
2018-06-03T22:10:04.678Z,27.1
2018-06-03T22:12:04.908Z,27.1
2018-06-03T22:14:04.659Z,27.1
2018-06-03T22:16:05.393Z,27.2
2018-06-03T22:18:05.321Z,27.1
2018-06-03T22:20:05.318Z,27.1
2018-06-03T22:22:05.492Z,27.1
2018-06-03T22:24:05.168Z,27.1
2018-06-03T22:26:04.864Z,27.1
2018-06-03T22:28:05.064Z,27.1
2018-06-03T22:30:05.027Z,27.1
2018-06-03T22:32:04.753Z,27.1
2018-06-03T22:34:05.737Z,27.1
2018-06-03T22:36:05.090Z,27.1
2018-06-03T22:38:07.307Z,27.1
2018-06-03T22:40:05.065Z,27.1
2018-06-03T22:42:04.748Z,27.1
2018-06-03T22:44:07.226Z,27.1
2018-06-03T22:46:05.594Z,27.1
2018-06-03T22:48:05.366Z,27.1
2018-06-03T22:50:04.949Z,27.1
2018-06-03T22:52:04.958Z,27.1
2018-06-03T22:54:05.017Z,27.1
2018-06-03T22:56:04.706Z,27.1
2018-06-03T22:58:13.089Z,27.1
2018-06-03T23:00:09.809Z,27
2018-06-03T23:02:12.866Z,27.1
2018-06-03T23:04:05.534Z,27.1
2018-06-03T23:06:05.409Z,27.1
2018-06-03T23:08:05.144Z,27.1
2018-06-03T23:10:04.851Z,27.1
2018-06-03T23:12:05.495Z,27.1
2018-06-03T23:14:05.167Z,27.1
2018-06-03T23:16:04.850Z,27.1
2018-06-03T23:18:05.231Z,27.1
2018-06-03T23:20:05.152Z,27.1
2018-06-03T23:22:04.852Z,27.1
2018-06-03T23:24:05.557Z,27.1
2018-06-03T23:26:05.305Z,27.1
2018-06-03T23:28:05.533Z,27.1
2018-06-03T23:30:05.222Z,27.1
2018-06-03T23:32:07.469Z,27.1
2018-06-03T23:34:07.677Z,27.1
2018-06-03T23:36:05.383Z,27.1
2018-06-03T23:38:05.161Z,27.1
2018-06-03T23:40:04.858Z,27.1
2018-06-03T23:42:05.584Z,27.1
2018-06-03T23:44:04.897Z,27.1
2018-06-03T23:46:04.676Z,27.1
2018-06-03T23:48:07.902Z,27
2018-06-03T23:50:10.763Z,27
2018-06-03T23:52:05.481Z,27
2018-06-03T23:54:12.781Z,27
2018-06-03T23:56:07.518Z,27.1
2018-06-03T23:58:05.205Z,27
